Time;durP1;ratioP1;P1;durP2;ratioP2;P2;SDS_P1;SDS_P2;PMS_P1;PMS_P2;Temp;Humidity;BMP_temperature;BMP_pressure;BME280_temperature;BME280_humidity;BME280_pressure;Samples;Min_cycle;Max_cycle;Signal;HPM_P1;HPM_P2
2022/11/27 00:01:36;;;;;;;36.63;17.97;;;8.10;99.90;;;;;;5208401;28;20790;-50
2022/11/27 00:04:09;;;;;;;49.70;20.30;;;8.10;99.90;;;;;;5224989;28;20425;-51
2022/11/27 00:06:40;;;;;;;61.57;23.10;;;8.10;99.90;;;;;;5210561;28;20472;-49
2022/11/27 00:09:14;;;;;;;51.47;19.90;;;8.10;99.90;;;;;;5233669;28;20436;-51
2022/11/27 00:11:45;;;;;;;38.37;18.20;;;8.10;99.90;;;;;;5195252;28;20426;-50
2022/11/27 00:14:16;;;;;;;34.70;17.93;;;8.10;99.90;;;;;;5208444;28;20444;-50
2022/11/27 00:16:47;;;;;;;38.30;19.33;;;8.00;99.90;;;;;;5218937;28;20485;-50
2022/11/27 00:19:17;;;;;;;42.90;17.97;;;8.00;99.90;;;;;;5220970;28;20510;-51
2022/11/27 00:21:48;;;;;;;40.57;18.43;;;7.90;99.90;;;;;;5218133;28;20205;-50
2022/11/27 00:24:18;;;;;;;32.23;17.40;;;7.90;99.90;;;;;;5219301;28;20186;-50
2022/11/27 00:26:49;;;;;;;53.27;18.30;;;7.80;99.90;;;;;;5200761;28;20567;-50
2022/11/27 00:29:20;;;;;;;34.10;16.03;;;7.80;99.90;;;;;;5230081;28;20219;-49
2022/11/27 00:31:50;;;;;;;36.10;15.13;;;7.90;99.90;;;;;;5215135;28;20179;-49
2022/11/27 00:34:21;;;;;;;34.13;16.33;;;7.90;99.90;;;;;;5217564;28;20179;-49
2022/11/27 00:36:52;;;;;;;46.53;17.30;;;7.90;99.90;;;;;;5199265;28;20667;-51
2022/11/27 00:39:22;;;;;;;32.87;16.23;;;7.90;99.90;;;;;;5221315;28;20599;-50
2022/11/27 00:41:53;;;;;;;29.40;14.20;;;7.90;99.90;;;;;;5219841;28;20206;-49
2022/11/27 00:44:24;;;;;;;28.40;13.80;;;8.00;99.90;;;;;;5208032;28;20193;-51
2022/11/27 00:46:54;;;;;;;31.50;16.07;;;8.00;99.90;;;;;;5201891;28;20695;-49
2022/11/27 00:49:25;;;;;;;32.93;14.37;;;7.90;99.90;;;;;;5215448;28;20206;-49
2022/11/27 00:51:55;;;;;;;26.33;13.43;;;8.00;99.90;;;;;;5212686;28;20211;-53
2022/11/27 00:54:26;;;;;;;31.40;14.53;;;8.10;99.90;;;;;;5218798;28;20336;-52
2022/11/27 00:56:57;;;;;;;32.77;13.80;;;8.00;99.90;;;;;;5204378;28;20214;-50
2022/11/27 00:59:27;;;;;;;37.93;14.27;;;8.00;99.90;;;;;;5201722;28;20527;-50
2022/11/27 01:01:58;;;;;;;28.53;13.27;;;8.00;99.90;;;;;;5217257;28;20176;-50
2022/11/27 01:04:29;;;;;;;28.83;13.10;;;8.00;99.90;;;;;;5207732;28;20180;-51
2022/11/27 01:06:59;;;;;;;33.23;14.07;;;8.10;99.90;;;;;;5218266;28;20507;-50
2022/11/27 01:09:30;;;;;;;31.37;14.37;;;8.10;99.90;;;;;;5213402;28;20190;-50
2022/11/27 01:12:01;;;;;;;21.10;11.87;;;8.10;99.90;;;;;;5217835;28;20182;-51
2022/11/27 01:14:31;;;;;;;30.97;12.80;;;8.00;99.90;;;;;;5202895;28;20653;-50
2022/11/27 01:17:02;;;;;;;24.27;11.53;;;8.00;99.90;;;;;;5228350;28;20210;-49
2022/11/27 01:19:33;;;;;;;24.23;11.30;;;8.10;99.90;;;;;;5203735;28;20182;-49
2022/11/27 01:22:03;;;;;;;27.03;11.13;;;8.00;99.90;;;;;;5198930;28;20941;-50
2022/11/27 01:24:34;;;;;;;24.23;12.47;;;8.10;99.90;;;;;;5197229;28;20541;-49
2022/11/27 01:27:05;;;;;;;24.67;10.50;;;8.10;99.90;;;;;;5210168;28;20234;-52
2022/11/27 01:29:35;;;;;;;16.90;9.90;;;7.90;99.90;;;;;;5200443;28;20178;-49
2022/11/27 01:32:06;;;;;;;30.53;12.30;;;8.00;99.90;;;;;;5215915;28;20233;-50
2022/11/27 01:34:36;;;;;;;22.90;13.37;;;8.00;99.90;;;;;;5215155;28;20201;-48
2022/11/27 01:37:07;;;;;;;24.23;11.77;;;8.00;99.90;;;;;;5212052;28;20199;-48
2022/11/27 01:39:37;;;;;;;29.37;11.30;;;8.00;99.90;;;;;;5224038;28;20186;-50
2022/11/27 01:42:11;;;;;;;17.00;10.90;;;8.00;99.90;;;;;;5193885;28;21022;-50
2022/11/27 01:44:47;;;;;;;19.00;10.47;;;8.00;99.90;;;;;;5217111;28;20536;-50
2022/11/27 01:47:30;;;;;;;20.40;11.37;;;8.00;99.90;;;;;;5215032;28;20458;-50
2022/11/27 01:50:11;;;;;;;34.73;11.53;;;8.20;99.90;;;;;;5194873;28;20474;-49
2022/11/27 01:52:47;;;;;;;26.43;13.00;;;8.10;99.90;;;;;;5221240;28;20433;-48
2022/11/27 01:55:45;;;;;;;26.87;11.90;;;8.10;99.90;;;;;;5203202;28;20885;-49
2022/11/27 01:58:21;;;;;;;29.50;11.10;;;7.90;99.90;;;;;;5199186;28;20469;-48
2022/11/27 02:00:52;;;;;;;79.73;40.23;;;7.90;99.90;;;;;;5195423;28;20441;-50
2022/11/27 02:03:23;;;;;;;84.23;40.67;;;7.80;99.90;;;;;;5217780;28;20928;-47
2022/11/27 02:05:53;;;;;;;79.30;35.10;;;7.70;99.90;;;;;;5207645;28;20617;-48
2022/11/27 02:08:25;;;;;;;30.10;13.40;;;7.80;99.90;;;;;;5205299;28;20480;-47
2022/11/27 02:11:22;;;;;;;23.77;11.20;;;7.90;99.90;;;;;;5187171;28;20203;-48
2022/11/27 02:14:11;;;;;;;31.40;12.13;;;7.80;99.90;;;;;;5206351;28;20508;-49
2022/11/27 02:17:25;;;;;;;22.93;12.10;;;7.80;99.90;;;;;;5206621;28;20540;-50
2022/11/27 02:19:56;;;;;;;39.63;13.40;;;7.60;99.90;;;;;;5202095;28;20453;-50
2022/11/27 02:23:01;;;;;;;31.47;13.47;;;7.60;99.90;;;;;;5208787;28;20441;-52
2022/11/27 02:25:55;;;;;;;30.70;13.20;;;7.50;99.90;;;;;;5207992;28;20210;-51
2022/11/27 02:28:51;;;;;;;28.03;13.17;;;7.40;99.90;;;;;;5224458;28;20508;-51
2022/11/27 02:31:40;;;;;;;31.90;11.83;;;7.40;99.90;;;;;;5201911;28;20474;-51
2022/11/27 02:34:31;;;;;;;20.23;11.53;;;7.40;99.90;;;;;;5202452;28;20448;-51
2022/11/27 02:37:21;;;;;;;25.10;12.70;;;7.30;99.90;;;;;;5216668;28;20468;-51
2022/11/27 02:40:01;;;;;;;26.87;13.60;;;7.30;99.90;;;;;;5202816;28;20569;-52
2022/11/27 02:42:57;;;;;;;25.70;14.50;;;7.30;99.90;;;;;;5214653;28;20461;-50
2022/11/27 02:45:37;;;;;;;31.80;14.63;;;7.30;99.90;;;;;;5205766;28;20456;-50
2022/11/27 02:48:09;;;;;;;27.87;12.90;;;7.40;99.90;;;;;;5221966;28;20449;-51
2022/11/27 02:50:43;;;;;;;25.33;11.63;;;7.30;99.90;;;;;;5222399;28;21172;-51
2022/11/27 02:53:22;;;;;;;25.73;11.90;;;7.30;99.90;;;;;;5207311;28;20487;-51
2022/11/27 02:55:54;;;;;;;26.40;11.93;;;7.40;99.90;;;;;;5202132;28;20875;-52
2022/11/27 02:58:27;;;;;;;21.97;12.97;;;7.40;99.90;;;;;;5207838;28;20442;-52
2022/11/27 03:00:59;;;;;;;23.07;12.77;;;7.60;99.90;;;;;;5207579;28;20960;-51
2022/11/27 03:03:36;;;;;;;32.07;12.17;;;7.60;99.90;;;;;;5221406;28;21049;-51
2022/11/27 03:06:23;;;;;;;30.43;12.83;;;7.70;99.90;;;;;;5223839;28;20471;-54
2022/11/27 03:09:01;;;;;;;24.43;11.90;;;7.90;99.90;;;;;;5201457;28;20457;-52
2022/11/27 03:11:31;;;;;;;30.47;12.57;;;7.80;99.90;;;;;;5216106;28;20940;-52
2022/11/27 03:14:07;;;;;;;23.40;12.47;;;7.60;99.90;;;;;;5226805;28;20442;-52
2022/11/27 03:16:42;;;;;;;22.73;11.77;;;7.50;99.90;;;;;;5213257;28;20667;-52
2022/11/27 03:19:21;;;;;;;27.67;12.07;;;7.50;99.90;;;;;;5204790;28;20444;-52
2022/11/27 03:21:56;;;;;;;15.87;11.17;;;7.40;99.90;;;;;;5221763;28;22290;-49
2022/11/27 03:24:29;;;;;;;29.73;9.97;;;7.40;99.90;;;;;;5201299;28;20532;-50
2022/11/27 03:27:00;;;;;;;16.23;11.43;;;7.40;99.90;;;;;;5223766;28;20469;-50
2022/11/27 03:29:46;;;;;;;23.30;9.57;;;7.30;99.90;;;;;;5223629;28;20437;-50
2022/11/27 03:32:17;;;;;;;18.07;9.87;;;7.30;99.90;;;;;;5223660;28;20434;-51
2022/11/27 03:34:48;;;;;;;15.93;9.90;;;7.30;99.90;;;;;;5212812;28;20939;-50
2022/11/27 03:37:20;;;;;;;21.53;9.90;;;7.30;99.90;;;;;;5221825;28;20965;-50
2022/11/27 03:39:50;;;;;;;22.20;10.67;;;7.20;99.90;;;;;;5216955;28;20964;-50
2022/11/27 03:42:59;;;;;;;20.90;10.90;;;7.20;99.90;;;;;;5207634;28;20449;-52
2022/11/27 03:45:45;;;;;;;35.63;16.60;;;7.20;99.90;;;;;;5194791;28;20207;-51
2022/11/27 03:48:26;;;;;;;55.37;25.27;;;7.20;99.90;;;;;;5208916;28;20444;-49
2022/11/27 03:51:20;;;;;;;27.33;12.80;;;7.50;99.90;;;;;;5218524;28;20980;-50
2022/11/27 03:54:15;;;;;;;29.17;11.00;;;7.40;99.90;;;;;;5216234;28;20825;-49
2022/11/27 03:57:01;;;;;;;24.60;11.60;;;7.40;99.90;;;;;;5212037;28;20473;-49
2022/11/27 03:59:36;;;;;;;22.80;10.37;;;7.20;99.90;;;;;;5215440;28;20442;-50
2022/11/27 04:02:12;;;;;;;24.43;10.47;;;7.10;99.90;;;;;;5227136;28;20930;-50
2022/11/27 04:04:43;;;;;;;17.90;11.23;;;7.10;99.90;;;;;;5207395;28;20507;-51
2022/11/27 04:07:16;;;;;;;24.87;9.57;;;7.10;99.90;;;;;;5194597;28;20549;-50
2022/11/27 04:09:47;;;;;;;19.50;9.90;;;7.20;99.90;;;;;;5202689;28;20186;-52
2022/11/27 04:12:17;;;;;;;24.70;11.37;;;7.20;99.90;;;;;;5218851;28;20433;-50
2022/11/27 04:14:48;;;;;;;25.63;10.07;;;7.20;99.90;;;;;;5214701;28;20176;-50
2022/11/27 04:17:18;;;;;;;21.13;10.47;;;7.00;99.90;;;;;;5222162;28;20195;-49
2022/11/27 04:19:49;;;;;;;28.87;10.20;;;7.40;99.90;;;;;;5200377;28;20183;-49
2022/11/27 04:22:19;;;;;;;19.50;10.57;;;7.20;99.90;;;;;;5203941;28;20187;-49
2022/11/27 04:24:50;;;;;;;15.80;9.63;;;7.20;99.90;;;;;;5215812;28;22146;-49
2022/11/27 04:27:21;;;;;;;15.47;9.90;;;7.00;99.90;;;;;;5204246;28;20203;-50
2022/11/27 04:29:51;;;;;;;27.73;10.73;;;7.00;99.90;;;;;;5220196;28;20252;-49
2022/11/27 04:32:22;;;;;;;21.70;10.40;;;6.90;99.90;;;;;;5204110;28;20589;-51
2022/11/27 04:34:53;;;;;;;23.40;10.50;;;6.90;99.90;;;;;;5221711;28;20214;-50
2022/11/27 04:37:23;;;;;;;19.30;10.10;;;7.10;99.90;;;;;;5223314;28;20206;-51
2022/11/27 04:39:54;;;;;;;19.60;10.97;;;7.20;99.90;;;;;;5224456;28;20614;-50
2022/11/27 04:42:24;;;;;;;39.10;12.57;;;7.10;99.90;;;;;;5205999;28;20176;-50
2022/11/27 04:44:55;;;;;;;21.97;11.30;;;7.00;99.90;;;;;;5183469;28;20187;-51
2022/11/27 04:47:26;;;;;;;18.23;9.37;;;7.20;99.90;;;;;;5213845;28;20289;-52
2022/11/27 04:49:56;;;;;;;24.90;11.43;;;7.10;99.90;;;;;;5222477;28;20588;-52
2022/11/27 04:52:27;;;;;;;15.20;9.97;;;7.00;99.90;;;;;;5226012;28;20187;-51
2022/11/27 04:54:57;;;;;;;25.00;11.33;;;6.80;99.90;;;;;;5218728;28;20174;-49
2022/11/27 04:57:28;;;;;;;24.00;11.83;;;6.60;99.90;;;;;;5223790;28;20191;-52
2022/11/27 04:59:59;;;;;;;22.53;11.07;;;6.50;99.90;;;;;;5222333;28;20218;-52
2022/11/27 05:02:29;;;;;;;18.33;10.73;;;6.40;99.90;;;;;;5213243;28;21282;-54
2022/11/27 05:07:41;;;;;;;19.50;11.80;;;6.40;99.90;;;;;;5236606;28;20222;-47
2022/11/27 05:10:12;;;;;;;21.30;10.80;;;6.40;99.90;;;;;;5238452;28;20440;-49
2022/11/27 05:12:43;;;;;;;21.40;11.37;;;6.30;99.90;;;;;;5224443;28;20179;-49
2022/11/27 05:15:13;;;;;;;29.47;12.90;;;6.20;99.90;;;;;;5241858;28;20290;-47
2022/11/27 05:17:44;;;;;;;19.27;11.97;;;6.30;99.90;;;;;;5225771;28;20222;-47
2022/11/27 05:20:15;;;;;;;26.47;11.87;;;6.30;99.90;;;;;;5224188;28;20190;-49
2022/11/27 05:22:47;;;;;;;19.63;12.23;;;5.90;99.90;;;;;;5222323;28;20202;-45
2022/11/27 05:25:17;;;;;;;25.53;11.77;;;5.60;99.90;;;;;;5245515;28;20189;-45
2022/11/27 05:27:48;;;;;;;32.67;14.47;;;5.50;99.90;;;;;;5227355;28;20510;-48
2022/11/27 05:30:19;;;;;;;26.13;13.13;;;5.50;99.90;;;;;;5237083;28;20194;-48
2022/11/27 05:32:49;;;;;;;19.53;13.30;;;5.40;99.90;;;;;;5231417;28;20201;-48
2022/11/27 05:35:20;;;;;;;31.27;13.40;;;5.40;99.90;;;;;;5246258;28;20656;-47
2022/11/27 05:37:51;;;;;;;28.33;14.17;;;5.20;99.90;;;;;;5227313;28;20196;-50
2022/11/27 05:40:22;;;;;;;28.37;14.00;;;5.20;99.90;;;;;;5241607;28;20186;-47
2022/11/27 05:42:52;;;;;;;32.77;15.07;;;5.00;99.90;;;;;;5222024;28;20183;-50
2022/11/27 05:45:23;;;;;;;23.93;15.20;;;5.00;99.90;;;;;;5226587;28;20904;-47
2022/11/27 05:47:54;;;;;;;35.10;14.63;;;4.90;99.90;;;;;;5212274;28;20212;-48
2022/11/27 05:50:24;;;;;;;35.83;14.57;;;4.80;99.90;;;;;;5237138;28;20183;-48
2022/11/27 05:52:55;;;;;;;33.90;16.03;;;4.70;99.90;;;;;;5236185;28;20658;-48
2022/11/27 05:55:26;;;;;;;26.00;14.40;;;4.70;99.90;;;;;;5250730;28;20235;-47
2022/11/27 05:57:57;;;;;;;33.87;15.57;;;4.60;99.90;;;;;;5239730;28;20197;-47
2022/11/27 06:00:27;;;;;;;29.83;15.20;;;4.60;99.90;;;;;;5236819;28;20184;-50
2022/11/27 06:02:58;;;;;;;29.73;14.33;;;4.50;99.90;;;;;;5236927;28;20200;-48
2022/11/27 06:05:28;;;;;;;29.37;14.83;;;4.50;99.90;;;;;;5238653;28;20212;-50
2022/11/27 06:07:59;;;;;;;29.40;15.80;;;4.50;99.90;;;;;;5252045;28;20240;-49
2022/11/27 06:10:30;;;;;;;29.13;14.27;;;4.50;99.90;;;;;;5233490;28;20542;-47
2022/11/27 06:13:00;;;;;;;37.33;14.13;;;4.50;99.90;;;;;;5247382;28;20243;-48
2022/11/27 06:15:31;;;;;;;49.23;15.90;;;4.40;99.90;;;;;;5250392;28;20199;-48
2022/11/27 06:18:02;;;;;;;24.77;15.50;;;4.40;99.90;;;;;;5251765;28;20605;-48
2022/11/27 06:20:33;;;;;;;26.43;16.87;;;4.40;99.90;;;;;;5239044;28;20250;-49
2022/11/27 06:23:03;;;;;;;36.57;16.30;;;4.30;99.90;;;;;;5247297;28;20187;-48
2022/11/27 06:25:34;;;;;;;37.03;16.27;;;4.30;99.90;;;;;;5227442;28;20214;-49
2022/11/27 06:28:05;;;;;;;34.60;15.83;;;4.30;99.90;;;;;;5242493;28;20693;-49
2022/11/27 06:30:37;;;;;;;30.77;15.70;;;4.20;99.90;;;;;;5229407;28;20194;-50
2022/11/27 06:33:07;;;;;;;28.00;14.13;;;4.20;99.90;;;;;;5243007;28;20188;-50
2022/11/27 06:35:38;;;;;;;32.00;15.73;;;4.20;99.90;;;;;;5241840;28;20461;-50
2022/11/27 06:38:08;;;;;;;24.30;15.20;;;4.30;99.90;;;;;;5230910;28;20188;-49
2022/11/27 06:40:39;;;;;;;29.43;15.87;;;4.30;99.90;;;;;;5227395;28;20179;-50
2022/11/27 06:43:10;;;;;;;30.50;14.93;;;4.20;99.90;;;;;;5222232;28;20184;-50
2022/11/27 06:45:40;;;;;;;27.70;15.20;;;4.10;99.90;;;;;;5240694;28;20251;-49
2022/11/27 06:48:11;;;;;;;33.83;16.90;;;4.10;99.90;;;;;;5246985;28;20595;-50
2022/11/27 06:50:42;;;;;;;29.93;15.23;;;4.10;99.90;;;;;;5246493;28;20243;-48
2022/11/27 06:53:12;;;;;;;35.30;17.47;;;4.20;99.90;;;;;;5228538;28;20276;-49
2022/11/27 06:55:43;;;;;;;41.23;17.97;;;4.10;99.90;;;;;;5237028;28;20231;-49
2022/11/27 06:58:14;;;;;;;39.37;17.23;;;4.10;99.90;;;;;;5231605;28;20187;-49
2022/11/27 07:00:45;;;;;;;31.27;17.10;;;4.10;99.90;;;;;;5238007;28;20182;-49
2022/11/27 07:03:16;;;;;;;38.10;19.50;;;4.10;99.90;;;;;;5229613;28;20440;-49
2022/11/27 07:05:46;;;;;;;38.33;19.83;;;4.10;99.90;;;;;;5246607;28;20216;-49
2022/11/27 07:08:17;;;;;;;33.43;17.73;;;4.10;99.90;;;;;;5229216;28;20184;-50
2022/11/27 07:10:48;;;;;;;39.40;17.90;;;4.20;99.90;;;;;;5227457;28;20649;-49
2022/11/27 07:13:19;;;;;;;39.47;18.93;;;4.20;99.90;;;;;;5230249;28;20438;-51
2022/11/27 07:15:49;;;;;;;33.10;18.33;;;4.30;99.90;;;;;;5232499;28;20204;-49
2022/11/27 07:18:20;;;;;;;53.50;19.40;;;4.30;99.90;;;;;;5223973;28;20192;-49
2022/11/27 07:20:51;;;;;;;40.87;18.90;;;4.40;99.90;;;;;;5215734;28;20216;-50
2022/11/27 07:23:22;;;;;;;36.70;16.00;;;4.30;99.90;;;;;;5245510;28;21502;-50
2022/11/27 07:25:52;;;;;;;36.07;17.53;;;4.30;99.90;;;;;;5241800;28;20542;-49
2022/11/27 07:28:23;;;;;;;33.77;17.50;;;4.30;99.90;;;;;;5214955;28;20287;-49
2022/11/27 07:30:55;;;;;;;35.27;17.00;;;4.50;99.90;;;;;;5219082;28;20184;-49
2022/11/27 07:33:25;;;;;;;34.90;17.07;;;4.40;99.90;;;;;;5219908;28;20470;-50
2022/11/27 07:36:03;;;;;;;38.07;17.23;;;4.40;99.90;;;;;;5244532;28;20494;-50
2022/11/27 07:38:34;;;;;;;30.50;16.90;;;4.50;99.90;;;;;;5223773;28;20271;-50
2022/11/27 07:41:05;;;;;;;27.83;16.57;;;4.50;99.90;;;;;;5241058;28;20521;-50
2022/11/27 07:43:36;;;;;;;35.77;19.40;;;4.50;99.90;;;;;;5241133;28;20446;-50
2022/11/27 07:46:20;;;;;;;33.33;18.03;;;4.50;99.90;;;;;;5226452;28;20463;-49
2022/11/27 07:48:51;;;;;;;30.60;16.37;;;4.50;99.90;;;;;;5249476;28;20444;-50
2022/11/27 07:51:22;;;;;;;37.23;18.10;;;4.50;99.90;;;;;;5234322;28;20428;-49
2022/11/27 07:53:53;;;;;;;45.73;17.90;;;4.60;99.90;;;;;;5235825;28;20427;-50
2022/11/27 07:56:24;;;;;;;33.30;17.90;;;4.60;99.90;;;;;;5250099;28;20212;-50
2022/11/27 07:58:58;;;;;;;23.83;14.80;;;4.70;99.90;;;;;;5233625;28;20192;-51
2022/11/27 08:01:29;;;;;;;32.80;15.23;;;4.70;99.90;;;;;;5248006;28;20460;-49
2022/11/27 08:04:00;;;;;;;31.67;14.53;;;4.70;99.90;;;;;;5250666;28;20465;-48
2022/11/27 08:06:30;;;;;;;22.80;13.60;;;4.70;99.90;;;;;;5231044;28;20291;-51
2022/11/27 08:09:01;;;;;;;25.93;13.70;;;4.80;99.90;;;;;;5251756;28;20176;-48
2022/11/27 08:11:34;;;;;;;23.97;13.30;;;4.80;99.90;;;;;;5249923;28;20189;-49
2022/11/27 08:14:06;;;;;;;24.20;14.10;;;4.80;99.90;;;;;;5254934;28;20675;-48
2022/11/27 08:16:37;;;;;;;26.33;12.33;;;4.70;99.90;;;;;;5246356;28;21049;-50
2022/11/27 08:19:09;;;;;;;27.57;15.27;;;4.70;99.90;;;;;;5232591;28;20585;-48
2022/11/27 08:21:40;;;;;;;34.93;17.77;;;4.70;99.90;;;;;;5227879;28;20183;-50
2022/11/27 08:24:10;;;;;;;28.00;12.77;;;4.70;99.90;;;;;;5249929;28;20458;-51
2022/11/27 08:26:41;;;;;;;21.70;12.93;;;4.80;99.90;;;;;;5235057;28;20208;-50
2022/11/27 08:29:12;;;;;;;24.13;13.90;;;4.90;99.90;;;;;;5249543;28;20180;-48
2022/11/27 08:31:43;;;;;;;29.67;14.30;;;4.90;99.90;;;;;;5234817;28;20183;-54
2022/11/27 08:34:13;;;;;;;33.23;14.70;;;5.00;99.90;;;;;;5230032;28;20177;-48
2022/11/27 08:36:44;;;;;;;33.53;15.50;;;5.00;99.90;;;;;;5233309;28;20689;-49
2022/11/27 08:39:14;;;;;;;23.23;13.37;;;5.00;99.90;;;;;;5246876;28;20189;-50
2022/11/27 08:41:45;;;;;;;27.30;14.00;;;5.10;99.90;;;;;;5232005;28;20219;-50
2022/11/27 08:44:16;;;;;;;29.50;14.60;;;5.10;99.90;;;;;;5229398;28;20196;-50
2022/11/27 08:46:46;;;;;;;24.73;13.70;;;5.10;99.90;;;;;;5236458;28;20217;-48
2022/11/27 08:49:18;;;;;;;21.60;14.00;;;5.20;99.90;;;;;;5215362;28;20312;-49
2022/11/27 08:51:48;;;;;;;20.40;13.00;;;5.40;99.90;;;;;;5213849;28;20180;-49
2022/11/27 08:54:19;;;;;;;34.97;13.63;;;5.30;99.90;;;;;;5244506;28;20767;-48
2022/11/27 08:56:53;;;;;;;37.40;17.20;;;5.40;99.90;;;;;;5225878;28;20743;-51
2022/11/27 08:59:24;;;;;;;37.70;20.20;;;5.40;99.90;;;;;;5248106;28;20180;-49
2022/11/27 09:01:54;;;;;;;19.70;12.30;;;5.60;99.90;;;;;;5224604;28;20432;-51
2022/11/27 09:04:25;;;;;;;28.60;14.23;;;5.50;99.90;;;;;;5221026;28;20197;-54
2022/11/27 09:06:55;;;;;;;20.80;12.40;;;5.60;99.90;;;;;;5227766;28;20209;-50
2022/11/27 09:09:26;;;;;;;31.47;14.40;;;5.50;99.90;;;;;;5242839;28;20209;-49
2022/11/27 09:11:57;;;;;;;27.90;15.03;;;5.40;99.90;;;;;;5226220;28;20594;-50
2022/11/27 09:14:28;;;;;;;25.93;12.63;;;5.50;99.90;;;;;;5242403;28;20538;-50
2022/11/27 09:16:58;;;;;;;27.80;13.57;;;5.60;99.90;;;;;;5236257;28;20205;-48
2022/11/27 09:19:29;;;;;;;36.33;13.90;;;5.60;99.90;;;;;;5234820;28;20185;-51
2022/11/27 09:21:59;;;;;;;23.83;13.03;;;5.50;99.90;;;;;;5236162;28;20190;-51
2022/11/27 09:24:30;;;;;;;34.83;14.03;;;5.50;99.90;;;;;;5245215;28;20661;-51
2022/11/27 09:27:01;;;;;;;22.67;12.10;;;5.70;99.90;;;;;;5223820;28;20634;-48
2022/11/27 09:29:33;;;;;;;27.40;14.67;;;5.70;99.90;;;;;;5226946;28;20182;-49
2022/11/27 09:32:04;;;;;;;21.50;12.07;;;5.60;99.90;;;;;;5247157;28;20186;-49
2022/11/27 09:34:35;;;;;;;24.00;11.43;;;5.60;99.90;;;;;;5231628;28;20496;-48
2022/11/27 09:37:06;;;;;;;23.63;11.20;;;5.60;99.90;;;;;;5240092;28;20202;-49
2022/11/27 09:39:36;;;;;;;21.67;12.73;;;5.70;99.90;;;;;;5241335;28;20186;-50
2022/11/27 09:42:17;;;;;;;28.03;13.33;;;5.70;99.90;;;;;;5225535;28;20186;-49
2022/11/27 09:44:58;;;;;;;23.73;11.60;;;5.80;99.90;;;;;;5241218;28;20439;-51
2022/11/27 09:47:49;;;;;;;22.37;11.93;;;6.00;99.90;;;;;;5218924;28;20629;-49
2022/11/27 09:50:30;;;;;;;18.20;11.43;;;6.00;99.90;;;;;;5238943;28;20573;-50
2022/11/27 09:53:30;;;;;;;17.47;11.40;;;6.00;99.90;;;;;;5244277;28;20429;-53
2022/11/27 09:56:05;;;;;;;22.17;13.03;;;6.10;99.90;;;;;;5215204;28;20488;-53
2022/11/27 09:58:41;;;;;;;24.43;12.23;;;6.00;99.90;;;;;;5236091;28;20451;-49
2022/11/27 10:01:14;;;;;;;22.87;11.07;;;6.10;99.90;;;;;;5237219;28;20430;-50
2022/11/27 10:03:46;;;;;;;18.50;11.43;;;6.10;99.90;;;;;;5241659;28;20424;-49
2022/11/27 10:06:52;;;;;;;28.00;11.07;;;6.20;99.90;;;;;;5222990;28;20469;-49
2022/11/27 10:09:48;;;;;;;13.90;9.00;;;6.30;99.90;;;;;;5215987;28;20436;-54
2022/11/27 10:12:40;;;;;;;29.70;10.80;;;6.30;99.90;;;;;;5221138;28;20435;-48
2022/11/27 10:15:41;;;;;;;18.67;10.60;;;6.40;99.90;;;;;;5237096;28;20440;-51
2022/11/27 10:18:22;;;;;;;21.80;10.20;;;6.30;99.90;;;;;;5205075;28;20441;-51
2022/11/27 10:20:59;;;;;;;12.20;8.60;;;6.40;99.90;;;;;;5225595;28;20441;-50
2022/11/27 10:23:59;;;;;;;24.67;10.70;;;6.50;99.90;;;;;;5230481;28;20790;-54
2022/11/27 10:26:43;;;;;;;16.83;10.87;;;6.40;99.90;;;;;;5202653;28;20485;-50
2022/11/27 10:29:32;;;;;;;12.90;9.43;;;6.50;99.90;;;;;;5212422;28;20432;-51
2022/11/27 10:32:14;;;;;;;19.30;10.80;;;6.60;99.90;;;;;;5232789;28;20489;-50
2022/11/27 10:35:01;;;;;;;19.10;11.37;;;6.70;99.90;;;;;;5208736;28;20424;-50
2022/11/27 10:37:44;;;;;;;20.13;11.07;;;6.90;99.90;;;;;;5222883;28;20453;-50
2022/11/27 10:40:47;;;;;;;23.03;11.13;;;6.70;99.90;;;;;;5224421;28;20436;-51
2022/11/27 10:43:20;;;;;;;19.30;11.10;;;6.70;99.90;;;;;;5201281;28;20432;-53
2022/11/27 10:45:56;;;;;;;18.87;11.60;;;6.70;99.90;;;;;;5243296;28;20483;-52
2022/11/27 10:48:28;;;;;;;19.83;11.47;;;6.70;99.90;;;;;;5231009;28;20434;-51
2022/11/27 10:50:59;;;;;;;17.17;11.10;;;6.70;99.90;;;;;;5236355;28;20436;-51
2022/11/27 10:53:32;;;;;;;19.57;10.30;;;6.70;99.90;;;;;;5236784;28;20471;-51
2022/11/27 10:56:14;;;;;;;16.07;9.97;;;6.60;99.90;;;;;;5222794;28;20205;-52
2022/11/27 10:58:55;;;;;;;15.33;9.63;;;6.60;99.90;;;;;;5219780;28;20440;-52
2022/11/27 11:01:39;;;;;;;16.23;9.60;;;6.70;99.90;;;;;;5242029;28;20424;-49
2022/11/27 11:04:12;;;;;;;14.30;9.90;;;6.70;99.90;;;;;;5221771;28;21015;-49
2022/11/27 11:06:45;;;;;;;22.00;9.93;;;6.80;99.90;;;;;;5230941;28;20467;-54
2022/11/27 11:09:19;;;;;;;24.70;10.20;;;6.80;99.90;;;;;;5247959;28;20429;-51
2022/11/27 11:11:51;;;;;;;21.00;9.50;;;6.90;99.90;;;;;;5246879;28;20786;-50
2022/11/27 11:14:24;;;;;;;13.50;8.70;;;6.90;99.90;;;;;;5240282;28;20428;-48
2022/11/27 11:16:55;;;;;;;20.20;9.03;;;6.90;99.90;;;;;;5226589;28;20544;-49
2022/11/27 11:19:37;;;;;;;21.00;10.80;;;7.00;99.90;;;;;;5239385;28;21016;-51
2022/11/27 11:22:14;;;;;;;15.83;10.20;;;7.00;99.90;;;;;;5239630;28;20495;-52
2022/11/27 11:24:52;;;;;;;23.10;9.40;;;7.10;99.90;;;;;;5244568;28;20787;-51
2022/11/27 11:27:29;;;;;;;14.33;9.13;;;7.00;99.90;;;;;;5225285;28;20560;-51
2022/11/27 11:30:03;;;;;;;15.50;9.03;;;7.00;99.90;;;;;;5213341;28;20438;-49
2022/11/27 11:32:39;;;;;;;22.13;10.00;;;6.90;99.90;;;;;;5241679;28;20433;-50
2022/11/27 11:35:33;;;;;;;15.23;9.80;;;6.90;99.90;;;;;;5183246;28;20523;-50
2022/11/27 11:38:14;;;;;;;21.10;9.30;;;7.00;99.90;;;;;;5224963;28;20520;-51
2022/11/27 11:40:58;;;;;;;14.67;10.10;;;7.10;99.90;;;;;;5241502;28;20447;-51
2022/11/27 11:43:34;;;;;;;13.43;9.67;;;7.50;99.90;;;;;;5224571;28;20436;-52
2022/11/27 11:46:19;;;;;;;17.13;9.53;;;7.70;99.90;;;;;;5240199;28;20459;-51
2022/11/27 11:48:53;;;;;;;17.30;10.87;;;7.80;99.90;;;;;;5220627;28;20431;-50
2022/11/27 11:51:38;;;;;;;20.57;8.30;;;7.90;99.90;;;;;;5226572;28;20460;-51
2022/11/27 11:54:24;;;;;;;20.43;9.50;;;8.00;99.90;;;;;;5220027;28;20439;-52
2022/11/27 11:57:00;;;;;;;22.17;10.00;;;8.00;99.90;;;;;;5211795;28;20467;-50
2022/11/27 12:00:04;;;;;;;26.40;9.77;;;7.80;99.90;;;;;;5224117;28;20436;-52
2022/11/27 12:02:39;;;;;;;22.10;10.70;;;7.60;99.90;;;;;;5239254;28;20944;-53
2022/11/27 12:05:57;;;;;;;17.83;9.30;;;7.50;99.90;;;;;;5226706;28;20466;-51
2022/11/27 12:08:57;;;;;;;19.27;8.80;;;7.50;99.90;;;;;;5218492;28;20817;-52
2022/11/27 12:12:10;;;;;;;23.13;9.57;;;7.40;99.90;;;;;;5227037;28;20436;-50
2022/11/27 12:14:53;;;;;;;17.87;9.80;;;7.40;99.90;;;;;;5239656;28;20437;-52
2022/11/27 12:17:47;;;;;;;16.80;9.33;;;7.30;99.90;;;;;;5228353;28;20465;-52
2022/11/27 12:20:22;;;;;;;15.30;8.90;;;7.30;99.90;;;;;;5220658;28;20471;-51
2022/11/27 12:23:11;;;;;;;13.67;8.97;;;7.20;99.90;;;;;;5241496;28;20460;-52
2022/11/27 12:25:48;;;;;;;14.80;8.93;;;7.10;99.90;;;;;;5217733;28;20503;-50
2022/11/27 12:28:45;;;;;;;20.17;8.53;;;7.10;99.90;;;;;;5226191;28;20987;-51
2022/11/27 12:32:05;;;;;;;16.23;8.63;;;6.90;99.90;;;;;;5218824;28;20859;-51
2022/11/27 12:34:37;;;;;;;14.67;8.77;;;6.90;99.90;;;;;;5202217;28;20440;-51
2022/11/27 12:37:33;;;;;;;18.47;8.77;;;6.90;99.90;;;;;;5228462;28;20856;-51
2022/11/27 12:40:41;;;;;;;17.47;8.80;;;6.80;99.90;;;;;;5221116;28;20226;-50
2022/11/27 12:43:23;;;;;;;14.17;9.33;;;6.90;99.90;;;;;;5225146;28;20440;-50
2022/11/27 12:46:01;;;;;;;16.47;9.40;;;6.80;99.90;;;;;;5225535;28;20552;-51
2022/11/27 12:48:45;;;;;;;14.90;8.63;;;6.80;99.90;;;;;;5236552;28;20428;-51
2022/11/27 12:51:30;;;;;;;14.83;9.13;;;6.90;99.90;;;;;;5232431;28;20447;-51
2022/11/27 12:54:14;;;;;;;14.67;8.50;;;6.80;99.90;;;;;;5225987;28;21391;-50
2022/11/27 12:56:56;;;;;;;13.07;8.80;;;6.90;99.90;;;;;;5182820;28;20531;-51
2022/11/27 12:59:45;;;;;;;16.57;9.43;;;6.90;99.90;;;;;;5232031;28;20434;-52
2022/11/27 13:02:41;;;;;;;11.00;7.83;;;6.90;99.90;;;;;;5232678;28;20833;-51
2022/11/27 13:05:25;;;;;;;15.10;9.90;;;6.90;99.90;;;;;;5222150;28;20476;-51
2022/11/27 13:08:10;;;;;;;9.70;8.17;;;6.80;99.90;;;;;;5216477;28;20464;-50
2022/11/27 13:10:55;;;;;;;22.30;9.10;;;6.90;99.90;;;;;;5217826;28;20464;-51
2022/11/27 13:13:43;;;;;;;10.77;8.10;;;6.90;99.90;;;;;;5238054;28;20935;-50
2022/11/27 13:16:30;;;;;;;13.47;7.60;;;6.80;99.90;;;;;;5237090;28;20613;-51
2022/11/27 13:19:23;;;;;;;26.13;7.90;;;7.00;99.90;;;;;;5233375;28;21140;-50
2022/11/27 13:21:56;;;;;;;32.90;8.40;;;7.10;99.90;;;;;;5236884;28;20441;-50
2022/11/27 13:24:28;;;;;;;15.90;7.47;;;7.00;99.90;;;;;;5222447;28;20495;-52
2022/11/27 13:27:14;;;;;;;13.63;7.73;;;7.00;99.90;;;;;;5236288;28;20979;-50